sensor_id;sensor_type;location;lat;lon;timestamp;pressure;altitude;pressure_sealevel;temperature
4421;BMP180;11824;51.178;13.546;2024-02-04T00:01:01;100573.00;;;10.10
4421;BMP180;11824;51.178;13.546;2024-02-04T00:03:31;100576.00;;;10.10
4421;BMP180;11824;51.178;13.546;2024-02-04T00:06:03;100563.00;;;10.10
4421;BMP180;11824;51.178;13.546;2024-02-04T00:08:32;100565.00;;;10.10
4421;BMP180;11824;51.178;13.546;2024-02-04T00:11:01;100556.00;;;10.20
4421;BMP180;11824;51.178;13.546;2024-02-04T00:13:32;100547.00;;;10.20
4421;BMP180;11824;51.178;13.546;2024-02-04T00:16:00;100542.00;;;10.20
4421;BMP180;11824;51.178;13.546;2024-02-04T00:18:29;100555.00;;;10.20
4421;BMP180;11824;51.178;13.546;2024-02-04T00:20:58;100551.00;;;10.20
4421;BMP180;11824;51.178;13.546;2024-02-04T00:23:28;100551.00;;;10.20
4421;BMP180;11824;51.178;13.546;2024-02-04T00:25:57;100557.00;;;10.20
4421;BMP180;11824;51.178;13.546;2024-02-04T00:28:26;100556.00;;;10.20
4421;BMP180;11824;51.178;13.546;2024-02-04T00:30:55;100554.00;;;10.10
4421;BMP180;11824;51.178;13.546;2024-02-04T00:33:26;100554.00;;;10.10
4421;BMP180;11824;51.178;13.546;2024-02-04T00:35:55;100560.00;;;10.00
4421;BMP180;11824;51.178;13.546;2024-02-04T00:38:24;100567.00;;;10.00
4421;BMP180;11824;51.178;13.546;2024-02-04T00:40:54;100552.00;;;10.00
4421;BMP180;11824;51.178;13.546;2024-02-04T00:43:24;100560.00;;;10.00
4421;BMP180;11824;51.178;13.546;2024-02-04T00:45:53;100564.00;;;10.00
4421;BMP180;11824;51.178;13.546;2024-02-04T00:48:24;100578.00;;;10.00
4421;BMP180;11824;51.178;13.546;2024-02-04T00:50:53;100562.00;;;10.00
4421;BMP180;11824;51.178;13.546;2024-02-04T00:53:22;100550.00;;;10.00
4421;BMP180;11824;51.178;13.546;2024-02-04T00:55:51;100537.00;;;10.00
4421;BMP180;11824;51.178;13.546;2024-02-04T00:58:21;100541.00;;;10.00
4421;BMP180;11824;51.178;13.546;2024-02-04T01:00:50;100550.00;;;10.00
4421;BMP180;11824;51.178;13.546;2024-02-04T01:03:19;100551.00;;;9.90
4421;BMP180;11824;51.178;13.546;2024-02-04T01:05:48;100528.00;;;9.90
4421;BMP180;11824;51.178;13.546;2024-02-04T01:08:17;100529.00;;;9.90
4421;BMP180;11824;51.178;13.546;2024-02-04T01:10:46;100547.00;;;9.80
4421;BMP180;11824;51.178;13.546;2024-02-04T01:13:15;100554.00;;;9.80
4421;BMP180;11824;51.178;13.546;2024-02-04T01:15:45;100566.00;;;9.70
4421;BMP180;11824;51.178;13.546;2024-02-04T01:18:14;100552.00;;;9.60
4421;BMP180;11824;51.178;13.546;2024-02-04T01:20:43;100560.00;;;9.60
4421;BMP180;11824;51.178;13.546;2024-02-04T01:23:11;100554.00;;;9.50
4421;BMP180;11824;51.178;13.546;2024-02-04T01:25:41;100551.00;;;9.40
4421;BMP180;11824;51.178;13.546;2024-02-04T01:28:10;100549.00;;;9.40
4421;BMP180;11824;51.178;13.546;2024-02-04T01:30:39;100549.00;;;9.30
4421;BMP180;11824;51.178;13.546;2024-02-04T01:33:09;100542.00;;;9.20
4421;BMP180;11824;51.178;13.546;2024-02-04T01:35:38;100548.00;;;9.20
4421;BMP180;11824;51.178;13.546;2024-02-04T01:38:07;100548.00;;;9.10
4421;BMP180;11824;51.178;13.546;2024-02-04T01:40:36;100548.00;;;9.10
4421;BMP180;11824;51.178;13.546;2024-02-04T01:43:05;100536.00;;;9.10
4421;BMP180;11824;51.178;13.546;2024-02-04T01:45:34;100549.00;;;9.20
4421;BMP180;11824;51.178;13.546;2024-02-04T01:48:03;100550.00;;;9.20
4421;BMP180;11824;51.178;13.546;2024-02-04T01:50:34;100556.00;;;9.20
4421;BMP180;11824;51.178;13.546;2024-02-04T01:53:03;100562.00;;;9.20
4421;BMP180;11824;51.178;13.546;2024-02-04T01:55:32;100552.00;;;9.20
4421;BMP180;11824;51.178;13.546;2024-02-04T01:58:01;100550.00;;;9.30
4421;BMP180;11824;51.178;13.546;2024-02-04T02:00:30;100554.00;;;9.30
4421;BMP180;11824;51.178;13.546;2024-02-04T02:03:00;100541.00;;;9.30
4421;BMP180;11824;51.178;13.546;2024-02-04T02:05:29;100538.00;;;9.40
4421;BMP180;11824;51.178;13.546;2024-02-04T02:07:59;100534.00;;;9.40
4421;BMP180;11824;51.178;13.546;2024-02-04T02:10:28;100527.00;;;9.50
4421;BMP180;11824;51.178;13.546;2024-02-04T02:13:00;100513.00;;;9.50
4421;BMP180;11824;51.178;13.546;2024-02-04T02:15:34;100525.00;;;9.50
4421;BMP180;11824;51.178;13.546;2024-02-04T02:18:11;100509.00;;;9.60
4421;BMP180;11824;51.178;13.546;2024-02-04T02:20:55;100522.00;;;9.60
4421;BMP180;11824;51.178;13.546;2024-02-04T02:23:36;100527.00;;;9.60
4421;BMP180;11824;51.178;13.546;2024-02-04T02:26:10;100528.00;;;9.60
4421;BMP180;11824;51.178;13.546;2024-02-04T02:28:40;100528.00;;;9.60
4421;BMP180;11824;51.178;13.546;2024-02-04T02:31:09;100527.00;;;9.60
4421;BMP180;11824;51.178;13.546;2024-02-04T02:33:38;100528.00;;;9.70
4421;BMP180;11824;51.178;13.546;2024-02-04T02:36:11;100528.00;;;9.70
4421;BMP180;11824;51.178;13.546;2024-02-04T02:38:46;100522.00;;;9.70
4421;BMP180;11824;51.178;13.546;2024-02-04T02:41:21;100535.00;;;9.70
4421;BMP180;11824;51.178;13.546;2024-02-04T02:43:52;100530.00;;;9.70
4421;BMP180;11824;51.178;13.546;2024-02-04T02:46:21;100526.00;;;9.70
4421;BMP180;11824;51.178;13.546;2024-02-04T02:48:51;100533.00;;;9.70
4421;BMP180;11824;51.178;13.546;2024-02-04T02:51:20;100524.00;;;9.70
4421;BMP180;11824;51.178;13.546;2024-02-04T02:53:48;100544.00;;;9.70
4421;BMP180;11824;51.178;13.546;2024-02-04T02:56:18;100532.00;;;9.70
4421;BMP180;11824;51.178;13.546;2024-02-04T02:58:47;100537.00;;;9.70
4421;BMP180;11824;51.178;13.546;2024-02-04T03:01:16;100528.00;;;9.70
4421;BMP180;11824;51.178;13.546;2024-02-04T03:03:45;100530.00;;;9.70
4421;BMP180;11824;51.178;13.546;2024-02-04T03:06:14;100524.00;;;9.70
4421;BMP180;11824;51.178;13.546;2024-02-04T03:08:42;100532.00;;;9.70
4421;BMP180;11824;51.178;13.546;2024-02-04T03:11:11;100538.00;;;9.70
4421;BMP180;11824;51.178;13.546;2024-02-04T03:13:41;100555.00;;;9.70
4421;BMP180;11824;51.178;13.546;2024-02-04T03:16:11;100525.00;;;9.60
4421;BMP180;11824;51.178;13.546;2024-02-04T03:18:40;100552.00;;;9.50
4421;BMP180;11824;51.178;13.546;2024-02-04T03:21:12;100532.00;;;9.40
4421;BMP180;11824;51.178;13.546;2024-02-04T03:23:42;100529.00;;;9.30
4421;BMP180;11824;51.178;13.546;2024-02-04T03:26:11;100526.00;;;9.20
4421;BMP180;11824;51.178;13.546;2024-02-04T03:28:41;100525.00;;;9.20
4421;BMP180;11824;51.178;13.546;2024-02-04T03:31:10;100533.00;;;9.10
4421;BMP180;11824;51.178;13.546;2024-02-04T03:33:39;100540.00;;;9.10
4421;BMP180;11824;51.178;13.546;2024-02-04T03:36:08;100549.00;;;9.10
4421;BMP180;11824;51.178;13.546;2024-02-04T03:38:37;100532.00;;;9.00
4421;BMP180;11824;51.178;13.546;2024-02-04T03:41:05;100539.00;;;9.00
4421;BMP180;11824;51.178;13.546;2024-02-04T03:43:36;100544.00;;;9.00
4421;BMP180;11824;51.178;13.546;2024-02-04T03:46:06;100545.00;;;9.00
4421;BMP180;11824;51.178;13.546;2024-02-04T03:48:35;100540.00;;;9.00
4421;BMP180;11824;51.178;13.546;2024-02-04T03:51:04;100552.00;;;9.00
4421;BMP180;11824;51.178;13.546;2024-02-04T03:53:33;100542.00;;;9.00
4421;BMP180;11824;51.178;13.546;2024-02-04T03:56:02;100544.00;;;9.00
4421;BMP180;11824;51.178;13.546;2024-02-04T03:58:33;100537.00;;;9.00
4421;BMP180;11824;51.178;13.546;2024-02-04T04:01:02;100529.00;;;9.00
4421;BMP180;11824;51.178;13.546;2024-02-04T04:03:32;100515.00;;;9.00
4421;BMP180;11824;51.178;13.546;2024-02-04T04:06:01;100514.00;;;9.00
4421;BMP180;11824;51.178;13.546;2024-02-04T04:08:30;100509.00;;;9.00
4421;BMP180;11824;51.178;13.546;2024-02-04T04:10:59;100519.00;;;9.00
4421;BMP180;11824;51.178;13.546;2024-02-04T04:13:27;100513.00;;;9.00
4421;BMP180;11824;51.178;13.546;2024-02-04T04:15:56;100517.00;;;9.00
4421;BMP180;11824;51.178;13.546;2024-02-04T04:18:25;100507.00;;;9.00
4421;BMP180;11824;51.178;13.546;2024-02-04T04:20:55;100497.00;;;9.00
4421;BMP180;11824;51.178;13.546;2024-02-04T04:23:24;100492.00;;;9.00
4421;BMP180;11824;51.178;13.546;2024-02-04T04:25:53;100499.00;;;9.00
4421;BMP180;11824;51.178;13.546;2024-02-04T04:28:22;100499.00;;;9.00
4421;BMP180;11824;51.178;13.546;2024-02-04T04:30:51;100501.00;;;9.00
4421;BMP180;11824;51.178;13.546;2024-02-04T04:33:20;100504.00;;;9.00
4421;BMP180;11824;51.178;13.546;2024-02-04T04:35:49;100506.00;;;9.00
4421;BMP180;11824;51.178;13.546;2024-02-04T04:38:19;100514.00;;;9.00
4421;BMP180;11824;51.178;13.546;2024-02-04T04:40:48;100501.00;;;9.00
4421;BMP180;11824;51.178;13.546;2024-02-04T04:43:17;100502.00;;;9.00
4421;BMP180;11824;51.178;13.546;2024-02-04T04:45:45;100501.00;;;9.00
4421;BMP180;11824;51.178;13.546;2024-02-04T04:48:14;100499.00;;;9.00
4421;BMP180;11824;51.178;13.546;2024-02-04T04:50:43;100495.00;;;9.00
4421;BMP180;11824;51.178;13.546;2024-02-04T04:53:12;100502.00;;;9.00
4421;BMP180;11824;51.178;13.546;2024-02-04T04:55:42;100483.00;;;9.00
4421;BMP180;11824;51.178;13.546;2024-02-04T04:58:11;100484.00;;;9.00
4421;BMP180;11824;51.178;13.546;2024-02-04T05:00:40;100465.00;;;9.00
4421;BMP180;11824;51.178;13.546;2024-02-04T05:03:09;100471.00;;;9.00
4421;BMP180;11824;51.178;13.546;2024-02-04T05:05:38;100464.00;;;8.90
4421;BMP180;11824;51.178;13.546;2024-02-04T05:08:07;100463.00;;;8.80
4421;BMP180;11824;51.178;13.546;2024-02-04T05:10:36;100470.00;;;8.80
4421;BMP180;11824;51.178;13.546;2024-02-04T05:13:06;100461.00;;;8.80
4421;BMP180;11824;51.178;13.546;2024-02-04T05:15:35;100462.00;;;8.80
4421;BMP180;11824;51.178;13.546;2024-02-04T05:18:05;100459.00;;;8.90
4421;BMP180;11824;51.178;13.546;2024-02-04T05:20:34;100452.00;;;8.90
4421;BMP180;11824;51.178;13.546;2024-02-04T05:23:03;100451.00;;;8.90
4421;BMP180;11824;51.178;13.546;2024-02-04T05:25:32;100449.00;;;9.00
4421;BMP180;11824;51.178;13.546;2024-02-04T05:28:01;100451.00;;;9.00
4421;BMP180;11824;51.178;13.546;2024-02-04T05:30:31;100439.00;;;9.00
4421;BMP180;11824;51.178;13.546;2024-02-04T05:33:00;100439.00;;;9.10
4421;BMP180;11824;51.178;13.546;2024-02-04T05:35:29;100427.00;;;9.10
4421;BMP180;11824;51.178;13.546;2024-02-04T05:37:57;100440.00;;;9.10
4421;BMP180;11824;51.178;13.546;2024-02-04T05:40:26;100421.00;;;9.10
4421;BMP180;11824;51.178;13.546;2024-02-04T05:42:56;100413.00;;;9.10
4421;BMP180;11824;51.178;13.546;2024-02-04T05:45:25;100415.00;;;9.10
4421;BMP180;11824;51.178;13.546;2024-02-04T05:47:55;100421.00;;;9.10
4421;BMP180;11824;51.178;13.546;2024-02-04T05:50:24;100419.00;;;9.10
4421;BMP180;11824;51.178;13.546;2024-02-04T05:52:53;100427.00;;;9.10
4421;BMP180;11824;51.178;13.546;2024-02-04T05:55:22;100414.00;;;9.10
4421;BMP180;11824;51.178;13.546;2024-02-04T05:57:51;100429.00;;;9.10
4421;BMP180;11824;51.178;13.546;2024-02-04T06:00:20;100404.00;;;9.10
4421;BMP180;11824;51.178;13.546;2024-02-04T06:02:49;100422.00;;;9.20
4421;BMP180;11824;51.178;13.546;2024-02-04T06:05:19;100413.00;;;9.20
4421;BMP180;11824;51.178;13.546;2024-02-04T06:07:48;100402.00;;;9.20
4421;BMP180;11824;51.178;13.546;2024-02-04T06:10:16;100412.00;;;9.20
4421;BMP180;11824;51.178;13.546;2024-02-04T06:12:46;100405.00;;;9.20
4421;BMP180;11824;51.178;13.546;2024-02-04T06:15:15;100408.00;;;9.30
4421;BMP180;11824;51.178;13.546;2024-02-04T06:17:44;100417.00;;;9.30
4421;BMP180;11824;51.178;13.546;2024-02-04T06:20:13;100414.00;;;9.30
4421;BMP180;11824;51.178;13.546;2024-02-04T06:22:43;100418.00;;;9.40
4421;BMP180;11824;51.178;13.546;2024-02-04T06:25:12;100410.00;;;9.40
4421;BMP180;11824;51.178;13.546;2024-02-04T06:27:41;100407.00;;;9.40
4421;BMP180;11824;51.178;13.546;2024-02-04T06:30:11;100387.00;;;9.40
4421;BMP180;11824;51.178;13.546;2024-02-04T06:32:40;100371.00;;;9.40
4421;BMP180;11824;51.178;13.546;2024-02-04T06:35:09;100385.00;;;9.40
4421;BMP180;11824;51.178;13.546;2024-02-04T06:37:38;100385.00;;;9.40
4421;BMP180;11824;51.178;13.546;2024-02-04T06:40:10;100385.00;;;9.40
4421;BMP180;11824;51.178;13.546;2024-02-04T06:42:39;100380.00;;;9.40
4421;BMP180;11824;51.178;13.546;2024-02-04T06:45:08;100394.00;;;9.50
4421;BMP180;11824;51.178;13.546;2024-02-04T06:47:37;100396.00;;;9.50
4421;BMP180;11824;51.178;13.546;2024-02-04T06:50:08;100399.00;;;9.50
4421;BMP180;11824;51.178;13.546;2024-02-04T06:52:41;100410.00;;;9.50
4421;BMP180;11824;51.178;13.546;2024-02-04T06:55:12;100412.00;;;9.50
4421;BMP180;11824;51.178;13.546;2024-02-04T06:57:41;100401.00;;;9.50
4421;BMP180;11824;51.178;13.546;2024-02-04T07:00:11;100393.00;;;9.50
4421;BMP180;11824;51.178;13.546;2024-02-04T07:02:40;100383.00;;;9.50
4421;BMP180;11824;51.178;13.546;2024-02-04T07:05:09;100382.00;;;9.50
4421;BMP180;11824;51.178;13.546;2024-02-04T07:07:38;100379.00;;;9.50
4421;BMP180;11824;51.178;13.546;2024-02-04T07:10:08;100377.00;;;9.50
4421;BMP180;11824;51.178;13.546;2024-02-04T07:12:38;100397.00;;;9.60
4421;BMP180;11824;51.178;13.546;2024-02-04T07:15:07;100390.00;;;9.60
4421;BMP180;11824;51.178;13.546;2024-02-04T07:17:36;100397.00;;;9.60
4421;BMP180;11824;51.178;13.546;2024-02-04T07:20:06;100379.00;;;9.60
4421;BMP180;11824;51.178;13.546;2024-02-04T07:22:35;100377.00;;;9.60
4421;BMP180;11824;51.178;13.546;2024-02-04T07:25:05;100381.00;;;9.60
4421;BMP180;11824;51.178;13.546;2024-02-04T07:27:34;100383.00;;;9.70
4421;BMP180;11824;51.178;13.546;2024-02-04T07:30:05;100373.00;;;9.70
4421;BMP180;11824;51.178;13.546;2024-02-04T07:32:34;100378.00;;;9.70
4421;BMP180;11824;51.178;13.546;2024-02-04T07:35:06;100377.00;;;9.80
4421;BMP180;11824;51.178;13.546;2024-02-04T07:37:36;100368.00;;;9.80
4421;BMP180;11824;51.178;13.546;2024-02-04T07:40:06;100371.00;;;9.90
4421;BMP180;11824;51.178;13.546;2024-02-04T07:42:35;100368.00;;;9.90
4421;BMP180;11824;51.178;13.546;2024-02-04T07:45:07;100359.00;;;9.90
4421;BMP180;11824;51.178;13.546;2024-02-04T07:47:37;100369.00;;;10.00
4421;BMP180;11824;51.178;13.546;2024-02-04T07:50:07;100359.00;;;10.00
4421;BMP180;11824;51.178;13.546;2024-02-04T07:52:36;100360.00;;;10.00
4421;BMP180;11824;51.178;13.546;2024-02-04T07:55:08;100360.00;;;10.10
4421;BMP180;11824;51.178;13.546;2024-02-04T07:57:37;100370.00;;;10.10
4421;BMP180;11824;51.178;13.546;2024-02-04T08:00:08;100363.00;;;10.20
4421;BMP180;11824;51.178;13.546;2024-02-04T08:02:38;100361.00;;;10.20
4421;BMP180;11824;51.178;13.546;2024-02-04T08:05:07;100358.00;;;10.30
4421;BMP180;11824;51.178;13.546;2024-02-04T08:07:36;100361.00;;;10.30
4421;BMP180;11824;51.178;13.546;2024-02-04T08:10:06;100370.00;;;10.40
4421;BMP180;11824;51.178;13.546;2024-02-04T08:12:35;100361.00;;;10.50
4421;BMP180;11824;51.178;13.546;2024-02-04T08:15:07;100340.00;;;10.50
4421;BMP180;11824;51.178;13.546;2024-02-04T08:17:36;100334.00;;;10.50
4421;BMP180;11824;51.178;13.546;2024-02-04T08:20:05;100351.00;;;10.60
4421;BMP180;11824;51.178;13.546;2024-02-04T08:22:34;100326.00;;;10.60
4421;BMP180;11824;51.178;13.546;2024-02-04T08:25:04;100356.00;;;10.70
4421;BMP180;11824;51.178;13.546;2024-02-04T08:27:33;100353.00;;;10.80
4421;BMP180;11824;51.178;13.546;2024-02-04T08:30:02;100358.00;;;10.80
4421;BMP180;11824;51.178;13.546;2024-02-04T08:32:32;100355.00;;;10.90
4421;BMP180;11824;51.178;13.546;2024-02-04T08:35:02;100359.00;;;10.90
4421;BMP180;11824;51.178;13.546;2024-02-04T08:37:31;100358.00;;;10.90
4421;BMP180;11824;51.178;13.546;2024-02-04T08:40:01;100359.00;;;11.00
4421;BMP180;11824;51.178;13.546;2024-02-04T08:42:30;100349.00;;;11.00
4421;BMP180;11824;51.178;13.546;2024-02-04T08:44:59;100359.00;;;11.00
4421;BMP180;11824;51.178;13.546;2024-02-04T08:47:27;100351.00;;;11.00
4421;BMP180;11824;51.178;13.546;2024-02-04T08:49:58;100364.00;;;11.10
4421;BMP180;11824;51.178;13.546;2024-02-04T08:52:27;100359.00;;;11.10
4421;BMP180;11824;51.178;13.546;2024-02-04T08:54:55;100366.00;;;11.20
4421;BMP180;11824;51.178;13.546;2024-02-04T08:57:26;100355.00;;;11.20
4421;BMP180;11824;51.178;13.546;2024-02-04T08:59:55;100359.00;;;11.30
4421;BMP180;11824;51.178;13.546;2024-02-04T09:02:23;100352.00;;;11.30
4421;BMP180;11824;51.178;13.546;2024-02-04T09:04:52;100365.00;;;11.20
4421;BMP180;11824;51.178;13.546;2024-02-04T09:07:23;100370.00;;;11.20
4421;BMP180;11824;51.178;13.546;2024-02-04T09:09:52;100363.00;;;11.20
4421;BMP180;11824;51.178;13.546;2024-02-04T09:12:20;100372.00;;;11.20
4421;BMP180;11824;51.178;13.546;2024-02-04T09:14:49;100377.00;;;11.10
4421;BMP180;11824;51.178;13.546;2024-02-04T09:17:18;100358.00;;;11.10
4421;BMP180;11824;51.178;13.546;2024-02-04T09:19:47;100342.00;;;11.10
4421;BMP180;11824;51.178;13.546;2024-02-04T09:22:16;100342.00;;;11.20
4421;BMP180;11824;51.178;13.546;2024-02-04T09:24:47;100364.00;;;11.20
4421;BMP180;11824;51.178;13.546;2024-02-04T09:27:16;100358.00;;;11.30
4421;BMP180;11824;51.178;13.546;2024-02-04T09:29:45;100341.00;;;11.30
4421;BMP180;11824;51.178;13.546;2024-02-04T09:32:14;100342.00;;;11.30
4421;BMP180;11824;51.178;13.546;2024-02-04T09:34:45;100359.00;;;11.40
4421;BMP180;11824;51.178;13.546;2024-02-04T09:37:14;100356.00;;;11.40
4421;BMP180;11824;51.178;13.546;2024-02-04T09:39:45;100372.00;;;11.40
4421;BMP180;11824;51.178;13.546;2024-02-04T09:42:19;100363.00;;;11.40
4421;BMP180;11824;51.178;13.546;2024-02-04T09:44:50;100355.00;;;11.40
4421;BMP180;11824;51.178;13.546;2024-02-04T09:47:19;100360.00;;;11.40
4421;BMP180;11824;51.178;13.546;2024-02-04T09:49:48;100365.00;;;11.40
4421;BMP180;11824;51.178;13.546;2024-02-04T09:52:23;100351.00;;;11.30
4421;BMP180;11824;51.178;13.546;2024-02-04T09:54:59;100354.00;;;11.30
4421;BMP180;11824;51.178;13.546;2024-02-04T09:57:29;100363.00;;;11.30
4421;BMP180;11824;51.178;13.546;2024-02-04T09:59:59;100357.00;;;11.30
4421;BMP180;11824;51.178;13.546;2024-02-04T10:02:27;100355.00;;;11.30
4421;BMP180;11824;51.178;13.546;2024-02-04T10:04:57;100347.00;;;11.30
4421;BMP180;11824;51.178;13.546;2024-02-04T10:07:26;100355.00;;;11.30
4421;BMP180;11824;51.178;13.546;2024-02-04T10:09:56;100353.00;;;11.30
4421;BMP180;11824;51.178;13.546;2024-02-04T10:12:25;100343.00;;;11.30
4421;BMP180;11824;51.178;13.546;2024-02-04T10:14:54;100334.00;;;11.30
4421;BMP180;11824;51.178;13.546;2024-02-04T10:17:24;100326.00;;;11.40
4421;BMP180;11824;51.178;13.546;2024-02-04T10:19:53;100322.00;;;11.30
4421;BMP180;11824;51.178;13.546;2024-02-04T10:22:22;100335.00;;;11.30
4421;BMP180;11824;51.178;13.546;2024-02-04T10:24:51;100320.00;;;11.30
4421;BMP180;11824;51.178;13.546;2024-02-04T10:27:21;100312.00;;;11.30
4421;BMP180;11824;51.178;13.546;2024-02-04T10:30:03;100317.00;;;11.30
4421;BMP180;11824;51.178;13.546;2024-02-04T10:32:32;100308.00;;;11.20
4421;BMP180;11824;51.178;13.546;2024-02-04T10:35:00;100308.00;;;11.10
4421;BMP180;11824;51.178;13.546;2024-02-04T10:37:30;100304.00;;;11.10
4421;BMP180;11824;51.178;13.546;2024-02-04T10:39:59;100297.00;;;11.00
4421;BMP180;11824;51.178;13.546;2024-02-04T10:42:29;100297.00;;;11.00
4421;BMP180;11824;51.178;13.546;2024-02-04T10:45:00;100294.00;;;11.00
4421;BMP180;11824;51.178;13.546;2024-02-04T10:47:31;100296.00;;;10.90
4421;BMP180;11824;51.178;13.546;2024-02-04T10:50:03;100294.00;;;10.90
4421;BMP180;11824;51.178;13.546;2024-02-04T10:52:36;100281.00;;;10.90
4421;BMP180;11824;51.178;13.546;2024-02-04T10:55:08;100271.00;;;10.90
4421;BMP180;11824;51.178;13.546;2024-02-04T10:57:39;100283.00;;;10.90
4421;BMP180;11824;51.178;13.546;2024-02-04T11:00:09;100268.00;;;10.90
4421;BMP180;11824;51.178;13.546;2024-02-04T11:02:41;100262.00;;;10.90
4421;BMP180;11824;51.178;13.546;2024-02-04T11:05:14;100259.00;;;11.00
4421;BMP180;11824;51.178;13.546;2024-02-04T11:07:44;100254.00;;;11.00
4421;BMP180;11824;51.178;13.546;2024-02-04T11:10:14;100254.00;;;11.00
4421;BMP180;11824;51.178;13.546;2024-02-04T11:12:45;100256.00;;;11.10
4421;BMP180;11824;51.178;13.546;2024-02-04T11:15:15;100255.00;;;11.10
4421;BMP180;11824;51.178;13.546;2024-02-04T11:18:10;100236.00;;;11.10
4421;BMP180;11824;51.178;13.546;2024-02-04T11:20:57;100242.00;;;11.00
4421;BMP180;11824;51.178;13.546;2024-02-04T11:23:37;100241.00;;;11.00
4421;BMP180;11824;51.178;13.546;2024-02-04T11:26:11;100231.00;;;11.10
4421;BMP180;11824;51.178;13.546;2024-02-04T11:28:42;100235.00;;;11.10
4421;BMP180;11824;51.178;13.546;2024-02-04T11:31:15;100228.00;;;11.10
4421;BMP180;11824;51.178;13.546;2024-02-04T11:33:46;100237.00;;;11.10
4421;BMP180;11824;51.178;13.546;2024-02-04T11:36:15;100233.00;;;11.20
4421;BMP180;11824;51.178;13.546;2024-02-04T11:38:49;100224.00;;;11.20
4421;BMP180;11824;51.178;13.546;2024-02-04T11:41:22;100221.00;;;11.30
4421;BMP180;11824;51.178;13.546;2024-02-04T11:43:55;100220.00;;;11.30
4421;BMP180;11824;51.178;13.546;2024-02-04T11:46:29;100226.00;;;11.30
4421;BMP180;11824;51.178;13.546;2024-02-04T11:49:01;100224.00;;;11.20
4421;BMP180;11824;51.178;13.546;2024-02-04T11:51:30;100223.00;;;11.20
4421;BMP180;11824;51.178;13.546;2024-02-04T11:54:00;100233.00;;;11.10
4421;BMP180;11824;51.178;13.546;2024-02-04T11:56:32;100229.00;;;11.10
4421;BMP180;11824;51.178;13.546;2024-02-04T11:59:05;100212.00;;;11.10
4421;BMP180;11824;51.178;13.546;2024-02-04T12:01:35;100212.00;;;11.10
4421;BMP180;11824;51.178;13.546;2024-02-04T12:04:11;100220.00;;;11.10
4421;BMP180;11824;51.178;13.546;2024-02-04T12:06:41;100214.00;;;11.10
4421;BMP180;11824;51.178;13.546;2024-02-04T12:09:10;100202.00;;;11.00
4421;BMP180;11824;51.178;13.546;2024-02-04T12:11:40;100200.00;;;11.00
4421;BMP180;11824;51.178;13.546;2024-02-04T12:14:10;100192.00;;;11.00
4421;BMP180;11824;51.178;13.546;2024-02-04T12:16:39;100186.00;;;11.00
4421;BMP180;11824;51.178;13.546;2024-02-04T12:19:08;100177.00;;;11.00
4421;BMP180;11824;51.178;13.546;2024-02-04T12:21:37;100181.00;;;11.00
4421;BMP180;11824;51.178;13.546;2024-02-04T12:24:07;100172.00;;;11.00
4421;BMP180;11824;51.178;13.546;2024-02-04T12:26:36;100177.00;;;11.00
4421;BMP180;11824;51.178;13.546;2024-02-04T12:29:05;100166.00;;;11.00
4421;BMP180;11824;51.178;13.546;2024-02-04T12:31:35;100160.00;;;11.10
4421;BMP180;11824;51.178;13.546;2024-02-04T12:34:08;100177.00;;;11.10
4421;BMP180;11824;51.178;13.546;2024-02-04T12:36:40;100170.00;;;11.10
4421;BMP180;11824;51.178;13.546;2024-02-04T12:39:11;100172.00;;;11.10
4421;BMP180;11824;51.178;13.546;2024-02-04T12:41:41;100177.00;;;11.10
4421;BMP180;11824;51.178;13.546;2024-02-04T12:44:10;100170.00;;;11.20
4421;BMP180;11824;51.178;13.546;2024-02-04T12:46:40;100161.00;;;11.20
4421;BMP180;11824;51.178;13.546;2024-02-04T12:49:09;100178.00;;;11.30
4421;BMP180;11824;51.178;13.546;2024-02-04T12:51:38;100174.00;;;11.30
4421;BMP180;11824;51.178;13.546;2024-02-04T12:54:08;100165.00;;;11.40
4421;BMP180;11824;51.178;13.546;2024-02-04T12:56:41;100156.00;;;11.40
4421;BMP180;11824;51.178;13.546;2024-02-04T12:59:10;100153.00;;;11.40
4421;BMP180;11824;51.178;13.546;2024-02-04T13:01:40;100159.00;;;11.40
4421;BMP180;11824;51.178;13.546;2024-02-04T13:04:09;100157.00;;;11.40
4421;BMP180;11824;51.178;13.546;2024-02-04T13:06:39;100165.00;;;11.40
4421;BMP180;11824;51.178;13.546;2024-02-04T13:09:08;100166.00;;;11.40
4421;BMP180;11824;51.178;13.546;2024-02-04T13:11:38;100169.00;;;11.40
4421;BMP180;11824;51.178;13.546;2024-02-04T13:14:07;100164.00;;;11.40
4421;BMP180;11824;51.178;13.546;2024-02-04T13:16:39;100172.00;;;11.40
4421;BMP180;11824;51.178;13.546;2024-02-04T13:19:08;100165.00;;;11.50
4421;BMP180;11824;51.178;13.546;2024-02-04T13:21:37;100162.00;;;11.40
4421;BMP180;11824;51.178;13.546;2024-02-04T13:24:06;100166.00;;;11.50
4421;BMP180;11824;51.178;13.546;2024-02-04T13:26:35;100162.00;;;11.50
4421;BMP180;11824;51.178;13.546;2024-02-04T13:29:08;100169.00;;;11.50
4421;BMP180;11824;51.178;13.546;2024-02-04T13:31:37;100164.00;;;11.50
4421;BMP180;11824;51.178;13.546;2024-02-04T13:34:07;100178.00;;;11.50
4421;BMP180;11824;51.178;13.546;2024-02-04T13:36:36;100173.00;;;11.50
4421;BMP180;11824;51.178;13.546;2024-02-04T13:39:05;100184.00;;;11.50
4421;BMP180;11824;51.178;13.546;2024-02-04T13:41:34;100188.00;;;11.50
4421;BMP180;11824;51.178;13.546;2024-02-04T13:44:03;100179.00;;;11.50
4421;BMP180;11824;51.178;13.546;2024-02-04T13:46:35;100189.00;;;11.50
4421;BMP180;11824;51.178;13.546;2024-02-04T13:49:08;100178.00;;;11.50
4421;BMP180;11824;51.178;13.546;2024-02-04T13:51:37;100197.00;;;11.50
4421;BMP180;11824;51.178;13.546;2024-02-04T13:54:12;100204.00;;;11.40
4421;BMP180;11824;51.178;13.546;2024-02-04T13:56:44;100198.00;;;11.40
4421;BMP180;11824;51.178;13.546;2024-02-04T13:59:14;100183.00;;;11.40
4421;BMP180;11824;51.178;13.546;2024-02-04T14:01:44;100193.00;;;11.40
4421;BMP180;11824;51.178;13.546;2024-02-04T14:04:14;100194.00;;;11.30
4421;BMP180;11824;51.178;13.546;2024-02-04T14:06:43;100195.00;;;11.30
4421;BMP180;11824;51.178;13.546;2024-02-04T14:09:12;100192.00;;;11.30
4421;BMP180;11824;51.178;13.546;2024-02-04T14:11:40;100201.00;;;11.30
4421;BMP180;11824;51.178;13.546;2024-02-04T14:14:09;100210.00;;;11.30
4421;BMP180;11824;51.178;13.546;2024-02-04T14:16:38;100215.00;;;11.30